createdAt,value
2019-05-21T00:02:09.714Z,20.90
2019-05-21T00:04:40.257Z,20.90
2019-05-21T00:07:10.808Z,20.90
2019-05-21T00:09:41.389Z,20.90
2019-05-21T00:12:11.898Z,20.90
2019-05-21T00:14:43.678Z,20.80
2019-05-21T00:17:14.221Z,20.80
2019-05-21T00:19:44.823Z,20.80
2019-05-21T00:22:15.448Z,20.80
2019-05-21T00:24:46.060Z,20.80
2019-05-21T00:27:16.541Z,20.80
2019-05-21T00:30:41.928Z,20.80
2019-05-21T00:34:06.224Z,20.50
2019-05-21T00:37:30.891Z,20.30
2019-05-21T00:41:14.184Z,20.10
2019-05-21T00:43:57.156Z,19.90
2019-05-21T00:46:27.745Z,20.00
2019-05-21T00:48:58.487Z,20.20
2019-05-21T00:51:28.989Z,20.20
2019-05-21T00:53:59.660Z,20.30
2019-05-21T00:56:30.391Z,20.30
2019-05-21T00:59:00.948Z,20.30
2019-05-21T01:01:33.713Z,20.40
2019-05-21T01:04:04.371Z,20.30
2019-05-21T01:06:36.366Z,20.30
2019-05-21T01:09:07.981Z,20.30
2019-05-21T01:11:39.645Z,20.30
2019-05-21T01:14:11.516Z,20.30
2019-05-21T01:16:42.088Z,20.30
2019-05-21T01:19:14.447Z,20.30
2019-05-21T01:21:45.022Z,20.20
2019-05-21T01:24:15.619Z,20.20
2019-05-21T01:26:46.216Z,20.20
2019-05-21T01:29:16.731Z,20.20
2019-05-21T01:31:47.305Z,20.20
2019-05-21T01:34:17.931Z,20.20
2019-05-21T01:36:48.505Z,20.20
2019-05-21T01:39:19.032Z,20.10
2019-05-21T01:41:50.769Z,20.10
2019-05-21T01:44:21.513Z,20.10
2019-05-21T01:46:55.740Z,20.10
2019-05-21T01:49:26.269Z,20.00
2019-05-21T01:51:58.794Z,20.00
2019-05-21T01:54:29.468Z,20.00
2019-05-21T01:57:00.121Z,20.00
2019-05-21T01:59:31.642Z,19.90
2019-05-21T02:02:02.252Z,19.90
2019-05-21T02:04:32.806Z,19.90
2019-05-21T02:07:03.458Z,19.90
2019-05-21T02:09:35.871Z,19.90
2019-05-21T02:12:06.439Z,19.90
2019-05-21T02:14:36.934Z,19.90
2019-05-21T02:17:07.472Z,19.90
2019-05-21T02:19:38.036Z,19.80
2019-05-21T02:22:08.606Z,19.80
2019-05-21T02:24:39.126Z,19.80
2019-05-21T02:27:09.705Z,19.80
2019-05-21T02:29:40.231Z,19.80
2019-05-21T02:32:10.803Z,19.80
2019-05-21T02:34:41.382Z,19.80
2019-05-21T02:37:11.993Z,19.80
2019-05-21T02:39:42.644Z,19.70
2019-05-21T02:42:13.238Z,19.70
2019-05-21T02:44:44.077Z,19.70
2019-05-21T02:47:14.670Z,19.70
2019-05-21T02:49:45.197Z,19.70
2019-05-21T02:52:15.799Z,19.70
2019-05-21T02:54:47.482Z,19.70
2019-05-21T02:57:18.078Z,19.70
2019-05-21T02:59:50.475Z,19.70
2019-05-21T03:02:28.510Z,19.70
2019-05-21T03:04:59.121Z,19.70
2019-05-21T03:07:30.896Z,19.60
2019-05-21T03:10:01.473Z,19.60
2019-05-21T03:12:32.009Z,19.60
2019-05-21T03:15:02.569Z,19.60
2019-05-21T03:17:34.360Z,19.60
2019-05-21T03:20:05.177Z,19.50
2019-05-21T03:22:35.827Z,19.50
2019-05-21T03:25:08.765Z,19.50
2019-05-21T03:27:39.393Z,19.50
2019-05-21T03:30:10.721Z,19.50
2019-05-21T03:32:42.754Z,19.50
2019-05-21T03:35:13.818Z,19.50
2019-05-21T03:37:44.425Z,19.50
2019-05-21T03:40:15.203Z,19.50
2019-05-21T03:42:45.769Z,19.60
2019-05-21T03:45:17.177Z,19.70
2019-05-21T03:47:47.727Z,19.80
2019-05-21T03:50:37.360Z,19.90
2019-05-21T03:53:09.789Z,20.10
2019-05-21T03:55:40.284Z,20.20
2019-05-21T03:58:10.858Z,20.30
2019-05-21T04:00:41.404Z,20.40
2019-05-21T04:03:11.978Z,20.50
2019-05-21T04:05:42.539Z,20.60
2019-05-21T04:08:13.099Z,20.80
2019-05-21T04:10:43.602Z,20.90
2019-05-21T04:13:14.156Z,21.20
2019-05-21T04:16:02.552Z,21.40
2019-05-21T04:18:41.618Z,21.50
2019-05-21T04:21:12.320Z,21.60
2019-05-21T04:23:42.924Z,21.80
2019-05-21T04:26:13.436Z,21.90
2019-05-21T04:28:44.053Z,22.00
2019-05-21T04:31:14.722Z,22.10
2019-05-21T04:33:45.412Z,22.10
2019-05-21T04:36:15.949Z,22.10
2019-05-21T04:38:46.522Z,22.20
2019-05-21T04:41:17.047Z,22.30
2019-05-21T04:43:47.608Z,22.40
2019-05-21T04:46:19.613Z,22.50
2019-05-21T04:48:50.213Z,22.60
2019-05-21T04:51:20.842Z,22.60
2019-05-21T04:53:52.603Z,22.60
2019-05-21T04:56:23.122Z,22.50
2019-05-21T04:58:53.685Z,22.50
2019-05-21T05:01:24.311Z,22.50
2019-05-21T05:03:55.868Z,22.50
2019-05-21T05:06:26.405Z,22.50
2019-05-21T05:08:57.001Z,22.50
2019-05-21T05:11:27.535Z,22.50
2019-05-21T05:13:58.141Z,22.60
2019-05-21T05:16:28.732Z,22.70
2019-05-21T05:18:59.234Z,23.00
2019-05-21T05:21:29.879Z,23.40
2019-05-21T05:24:00.443Z,23.80
2019-05-21T05:26:30.970Z,24.20
2019-05-21T05:29:01.558Z,24.70
2019-05-21T05:31:32.099Z,25.10
2019-05-21T05:34:03.819Z,25.60
2019-05-21T05:36:34.368Z,26.00
2019-05-21T05:39:06.526Z,26.40
2019-05-21T05:41:37.162Z,26.90
2019-05-21T05:44:07.752Z,27.30
2019-05-21T05:46:38.292Z,27.70
2019-05-21T05:49:21.363Z,28.20
2019-05-21T05:51:52.006Z,28.60
2019-05-21T05:54:23.710Z,29.00
2019-05-21T05:56:54.235Z,29.30
2019-05-21T05:59:43.879Z,29.70
2019-05-21T06:02:14.442Z,30.10
2019-05-21T06:04:46.107Z,30.50
2019-05-21T06:07:16.650Z,30.90
2019-05-21T06:09:47.217Z,31.20
2019-05-21T06:12:38.175Z,31.50
2019-05-21T06:15:09.331Z,31.90
2019-05-21T06:17:39.842Z,32.20
2019-05-21T06:20:12.512Z,32.50
2019-05-21T06:22:44.300Z,32.80
2019-05-21T06:25:15.381Z,33.10
2019-05-21T06:27:47.043Z,33.40
2019-05-21T06:30:18.624Z,33.70
2019-05-21T06:32:49.290Z,34.00
2019-05-21T06:35:19.956Z,34.30
2019-05-21T06:37:50.493Z,34.70
2019-05-21T06:40:22.191Z,35.00
2019-05-21T06:42:52.763Z,35.20
2019-05-21T06:45:25.026Z,35.50
2019-05-21T06:47:55.765Z,35.80
2019-05-21T06:50:26.316Z,36.00
2019-05-21T06:52:58.315Z,36.20
2019-05-21T06:55:28.879Z,36.40
2019-05-21T06:57:59.442Z,36.50
2019-05-21T07:00:30.030Z,36.70
2019-05-21T07:03:00.599Z,36.90
2019-05-21T07:05:31.160Z,37.00
2019-05-21T07:08:01.749Z,36.70
2019-05-21T07:10:32.351Z,36.20
2019-05-21T07:13:03.958Z,35.60
2019-05-21T07:15:34.552Z,35.00
2019-05-21T07:18:05.087Z,34.70
2019-05-21T07:20:37.515Z,34.80
2019-05-21T07:23:08.057Z,35.10
2019-05-21T07:25:38.595Z,35.50
2019-05-21T07:28:09.121Z,36.00
2019-05-21T07:30:39.793Z,36.40
2019-05-21T07:33:10.507Z,36.80
2019-05-21T07:35:41.112Z,37.20
2019-05-21T07:38:11.725Z,37.50
2019-05-21T07:40:42.521Z,37.80
2019-05-21T07:43:13.027Z,38.00
2019-05-21T07:45:44.878Z,38.20
2019-05-21T07:48:15.400Z,38.10
2019-05-21T07:50:46.101Z,37.60
2019-05-21T07:53:16.645Z,36.90
2019-05-21T07:55:47.159Z,36.30
2019-05-21T07:58:17.885Z,35.70
2019-05-21T08:00:48.460Z,35.10
2019-05-21T08:03:20.111Z,34.60
2019-05-21T08:05:50.655Z,34.10
2019-05-21T08:08:21.191Z,33.60
2019-05-21T08:10:51.884Z,33.20
2019-05-21T08:13:23.640Z,32.80
2019-05-21T08:15:54.213Z,32.50
2019-05-21T08:18:24.789Z,32.20
2019-05-21T08:20:56.215Z,31.90
2019-05-21T08:23:26.750Z,31.60
2019-05-21T08:25:57.305Z,31.40
2019-05-21T08:28:27.833Z,31.20
2019-05-21T08:31:02.093Z,31.10
2019-05-21T08:33:30.782Z,31.10
2019-05-21T08:36:01.503Z,31.00
2019-05-21T08:38:31.971Z,31.10
2019-05-21T08:41:02.660Z,31.30
2019-05-21T08:43:33.158Z,31.60
2019-05-21T08:46:04.235Z,31.90
2019-05-21T08:48:34.755Z,32.10
2019-05-21T08:51:05.533Z,32.30
2019-05-21T08:53:36.063Z,32.40
2019-05-21T08:56:06.615Z,32.60
2019-05-21T08:58:37.230Z,32.70
2019-05-21T09:01:07.804Z,32.80
2019-05-21T09:03:38.329Z,32.90
2019-05-21T09:06:09.043Z,33.00
2019-05-21T09:08:39.621Z,33.00
2019-05-21T09:11:10.159Z,33.00
2019-05-21T09:13:40.763Z,32.90
2019-05-21T09:16:13.187Z,32.70
2019-05-21T09:18:43.857Z,32.60
2019-05-21T09:21:14.495Z,32.40
2019-05-21T09:23:45.095Z,32.20
2019-05-21T09:26:15.696Z,31.90
2019-05-21T09:28:47.422Z,31.70
2019-05-21T09:31:18.022Z,31.50
2019-05-21T09:33:49.788Z,31.40
2019-05-21T09:36:20.368Z,31.20
2019-05-21T09:38:51.002Z,31.10
2019-05-21T09:41:22.699Z,31.00
2019-05-21T09:43:53.284Z,30.90
2019-05-21T09:46:23.890Z,30.80
2019-05-21T09:48:56.174Z,30.70
2019-05-21T09:51:26.853Z,30.70
2019-05-21T09:53:57.465Z,30.60
2019-05-21T09:56:34.313Z,30.40
2019-05-21T09:59:23.606Z,30.30
2019-05-21T10:01:57.072Z,30.10
2019-05-21T10:04:27.587Z,30.00
2019-05-21T10:06:58.127Z,30.00
2019-05-21T10:09:28.768Z,29.90
2019-05-21T10:11:59.344Z,29.80
2019-05-21T10:14:33.886Z,29.70
2019-05-21T10:17:02.205Z,29.70
2019-05-21T10:19:32.753Z,29.60
2019-05-21T10:22:03.649Z,29.50
2019-05-21T10:24:34.290Z,29.40
2019-05-21T10:27:04.952Z,29.30
2019-05-21T10:29:35.488Z,29.30
2019-05-21T10:32:06.276Z,29.20
2019-05-21T10:34:36.843Z,29.10
2019-05-21T10:37:07.442Z,29.00
2019-05-21T10:39:38.138Z,29.00
2019-05-21T10:42:08.686Z,29.00
2019-05-21T10:44:39.225Z,29.00
2019-05-21T10:47:09.775Z,28.90
2019-05-21T10:49:40.377Z,28.90
2019-05-21T10:52:11.030Z,28.80
2019-05-21T10:54:41.550Z,28.80
2019-05-21T10:57:12.107Z,28.70
2019-05-21T10:59:42.696Z,28.70
2019-05-21T11:02:23.081Z,28.70
2019-05-21T11:05:12.545Z,28.60
2019-05-21T11:07:43.129Z,28.60
2019-05-21T11:10:15.468Z,28.60
2019-05-21T11:12:46.078Z,28.50
2019-05-21T11:15:19.037Z,28.50
2019-05-21T11:18:07.360Z,28.50
2019-05-21T11:20:23.609Z,28.50
2019-05-21T11:22:58.203Z,28.40
2019-05-21T11:25:27.697Z,28.40
2019-05-21T11:27:59.383Z,28.40
2019-05-21T11:30:29.961Z,28.30
2019-05-21T11:33:00.607Z,28.30
2019-05-21T11:35:31.203Z,28.20
2019-05-21T11:38:02.335Z,28.20
2019-05-21T11:40:33.032Z,28.10
2019-05-21T11:43:03.713Z,28.10
2019-05-21T11:45:34.357Z,28.00
2019-05-21T11:48:05.164Z,28.00
2019-05-21T11:50:35.726Z,28.00
2019-05-21T11:53:06.441Z,28.10
2019-05-21T11:55:38.276Z,28.10
2019-05-21T11:58:08.901Z,28.10
2019-05-21T12:00:39.842Z,28.00
2019-05-21T12:03:12.313Z,28.00
2019-05-21T12:05:43.188Z,28.00
2019-05-21T12:08:13.959Z,28.00
2019-05-21T12:10:44.609Z,28.00
2019-05-21T12:13:20.222Z,28.00
2019-05-21T12:15:50.290Z,28.00
2019-05-21T12:18:21.029Z,28.00
2019-05-21T12:20:51.869Z,27.90
2019-05-21T12:23:22.624Z,28.00
2019-05-21T12:25:53.267Z,27.90
2019-05-21T12:28:23.964Z,27.90
2019-05-21T12:30:54.546Z,27.90
2019-05-21T12:33:25.090Z,27.90
2019-05-21T12:35:55.756Z,27.80
2019-05-21T12:38:26.412Z,27.80
2019-05-21T12:40:56.957Z,27.80
2019-05-21T12:43:27.482Z,27.80
2019-05-21T12:45:58.094Z,27.70
2019-05-21T12:48:28.627Z,27.70
2019-05-21T12:50:59.165Z,27.70
2019-05-21T12:53:29.772Z,27.70
2019-05-21T12:56:00.364Z,27.70
2019-05-21T12:58:31.042Z,27.70
2019-05-21T13:01:01.868Z,27.60
2019-05-21T13:03:32.419Z,27.60
2019-05-21T13:06:03.187Z,27.50
2019-05-21T13:08:33.703Z,27.50
2019-05-21T13:11:04.282Z,27.50
2019-05-21T13:13:35.031Z,27.50
2019-05-21T13:16:05.590Z,27.50
2019-05-21T13:18:36.310Z,27.50
2019-05-21T13:21:08.584Z,27.50
2019-05-21T13:23:39.299Z,27.50
2019-05-21T13:26:10.145Z,27.50
2019-05-21T13:28:41.017Z,27.60
2019-05-21T13:31:11.663Z,27.60
2019-05-21T13:33:43.497Z,27.60
2019-05-21T13:36:14.289Z,27.60
2019-05-21T13:38:46.752Z,27.70
2019-05-21T13:41:17.718Z,27.70
2019-05-21T13:43:48.263Z,27.70
2019-05-21T13:46:18.920Z,27.70
2019-05-21T13:48:49.509Z,27.70
2019-05-21T13:51:20.113Z,27.70
2019-05-21T13:53:50.613Z,27.70
2019-05-21T13:56:21.373Z,27.80
2019-05-21T13:58:52.009Z,27.80
2019-05-21T14:01:39.190Z,27.80
2019-05-21T14:03:55.328Z,27.80
2019-05-21T14:06:26.097Z,27.80
2019-05-21T14:08:56.649Z,27.80
2019-05-21T14:11:27.638Z,27.80
2019-05-21T14:13:58.310Z,27.70
2019-05-21T14:16:28.912Z,27.80
2019-05-21T14:18:59.501Z,27.80
2019-05-21T14:21:30.082Z,27.80
2019-05-21T14:24:00.694Z,27.80
2019-05-21T14:26:31.375Z,27.80
2019-05-21T14:29:01.910Z,27.80
2019-05-21T14:31:32.500Z,27.80
2019-05-21T14:34:03.314Z,27.80
2019-05-21T14:36:33.885Z,27.80
2019-05-21T14:39:07.200Z,27.80
2019-05-21T14:41:37.792Z,27.80
2019-05-21T14:44:08.504Z,27.80
2019-05-21T14:46:39.212Z,27.80
2019-05-21T14:49:09.744Z,27.80
2019-05-21T14:51:40.302Z,27.80
2019-05-21T14:54:25.558Z,27.80
2019-05-21T14:56:47.306Z,27.80
2019-05-21T14:59:16.768Z,27.80
2019-05-21T15:01:47.400Z,27.80
2019-05-21T15:04:18.389Z,27.80
2019-05-21T15:06:49.110Z,27.80
2019-05-21T15:09:20.198Z,27.70
2019-05-21T15:11:51.786Z,27.70
2019-05-21T15:14:22.456Z,27.70
2019-05-21T15:16:53.231Z,27.70
2019-05-21T15:19:23.808Z,27.70
2019-05-21T15:21:55.651Z,27.70
2019-05-21T15:24:27.354Z,27.70
2019-05-21T15:26:57.900Z,27.60
2019-05-21T15:29:28.575Z,27.60
2019-05-21T15:31:59.111Z,27.60
2019-05-21T15:34:29.882Z,27.60
2019-05-21T15:37:00.418Z,27.50
2019-05-21T15:39:31.006Z,27.50
2019-05-21T15:42:02.804Z,27.50
2019-05-21T15:44:33.366Z,27.50
2019-05-21T15:47:04.009Z,27.50
2019-05-21T15:49:36.927Z,27.40
2019-05-21T15:52:06.942Z,27.40
2019-05-21T15:54:37.561Z,27.40
2019-05-21T15:57:10.403Z,27.40
2019-05-21T15:59:42.287Z,27.40
2019-05-21T16:02:12.829Z,27.40
2019-05-21T16:04:43.419Z,27.40
2019-05-21T16:07:15.035Z,27.40
2019-05-21T16:09:45.605Z,27.30
2019-05-21T16:12:16.123Z,27.30
2019-05-21T16:14:46.715Z,27.30
2019-05-21T16:17:17.306Z,27.30
2019-05-21T16:19:47.866Z,27.30
2019-05-21T16:22:18.678Z,27.30
2019-05-21T16:24:50.334Z,27.30
2019-05-21T16:27:20.909Z,27.30
2019-05-21T16:29:51.541Z,27.30
2019-05-21T16:32:23.244Z,27.20
2019-05-21T16:35:12.993Z,27.20
2019-05-21T16:37:43.622Z,27.20
2019-05-21T16:40:15.108Z,27.20
2019-05-21T16:42:45.760Z,27.20
2019-05-21T16:45:17.028Z,27.10
2019-05-21T16:47:49.501Z,27.10
2019-05-21T16:50:20.055Z,27.10
2019-05-21T16:52:50.595Z,27.10
2019-05-21T16:55:21.192Z,27.10
2019-05-21T16:57:55.971Z,27.10
2019-05-21T17:00:26.727Z,27.00
2019-05-21T17:02:58.332Z,27.00
2019-05-21T17:05:28.989Z,27.00
2019-05-21T17:08:00.557Z,27.00
2019-05-21T17:10:32.605Z,27.00
2019-05-21T17:13:04.281Z,27.00
2019-05-21T17:15:34.912Z,27.00
2019-05-21T17:18:05.520Z,27.00
2019-05-21T17:20:37.227Z,27.00
2019-05-21T17:23:07.879Z,26.90
2019-05-21T17:25:38.656Z,26.90
2019-05-21T17:28:10.700Z,26.90
2019-05-21T17:30:44.103Z,26.90
2019-05-21T17:33:15.167Z,26.90
2019-05-21T17:35:45.749Z,26.80
2019-05-21T17:38:16.401Z,26.80
2019-05-21T17:40:47.097Z,26.80
2019-05-21T17:43:17.837Z,26.80
2019-05-21T17:45:48.426Z,26.80
2019-05-21T17:48:18.974Z,26.80
2019-05-21T17:50:49.683Z,26.80
2019-05-21T17:53:20.356Z,26.80
2019-05-21T17:55:51.035Z,26.80
2019-05-21T17:58:21.648Z,26.80
2019-05-21T18:00:56.835Z,26.70
2019-05-21T18:03:27.606Z,26.70
2019-05-21T18:05:58.867Z,26.70
2019-05-21T18:08:29.854Z,26.70
2019-05-21T18:11:01.104Z,26.70
2019-05-21T18:13:32.426Z,26.70
2019-05-21T18:16:03.690Z,26.60
2019-05-21T18:18:34.730Z,26.60
2019-05-21T18:21:07.352Z,26.60
2019-05-21T18:23:38.134Z,26.60
2019-05-21T18:26:08.936Z,26.50
2019-05-21T18:28:39.470Z,26.50
2019-05-21T18:31:10.077Z,26.50
2019-05-21T18:33:40.800Z,26.50
2019-05-21T18:36:30.388Z,26.50
2019-05-21T18:39:02.485Z,26.40
2019-05-21T18:41:34.523Z,26.40
2019-05-21T18:44:05.137Z,26.30
2019-05-21T18:46:36.837Z,26.30
2019-05-21T18:49:07.525Z,26.30
2019-05-21T18:51:41.353Z,26.20
2019-05-21T18:54:11.972Z,26.20
2019-05-21T18:56:42.966Z,26.20
2019-05-21T18:59:13.500Z,26.10
2019-05-21T19:01:44.201Z,26.10
2019-05-21T19:04:16.213Z,26.10
2019-05-21T19:06:47.032Z,26.10
2019-05-21T19:09:17.768Z,26.00
2019-05-21T19:11:48.346Z,26.00
2019-05-21T19:14:20.535Z,26.00
2019-05-21T19:16:51.159Z,25.90
2019-05-21T19:19:21.753Z,25.90
2019-05-21T19:21:52.308Z,25.90
2019-05-21T19:24:22.912Z,25.80
2019-05-21T19:26:53.700Z,25.80
2019-05-21T19:29:24.251Z,25.80
2019-05-21T19:31:54.920Z,25.80
2019-05-21T19:34:25.639Z,25.70
2019-05-21T19:36:56.491Z,25.70
2019-05-21T19:39:28.567Z,25.70
2019-05-21T19:41:59.165Z,25.60
2019-05-21T19:44:29.896Z,25.60
2019-05-21T19:47:00.588Z,25.60
2019-05-21T19:49:32.232Z,25.60
2019-05-21T19:52:02.809Z,25.60
2019-05-21T19:54:33.384Z,25.50
2019-05-21T19:57:04.072Z,25.50
2019-05-21T19:59:34.616Z,25.50
2019-05-21T20:02:06.599Z,25.50
2019-05-21T20:04:37.416Z,25.50
2019-05-21T20:07:10.569Z,25.40
2019-05-21T20:09:42.511Z,25.40
2019-05-21T20:12:13.471Z,25.40
2019-05-21T20:14:45.649Z,25.40
2019-05-21T20:17:17.913Z,25.30
2019-05-21T20:19:50.052Z,25.30
2019-05-21T20:22:20.792Z,25.30
2019-05-21T20:24:52.414Z,25.30
2019-05-21T20:27:24.253Z,25.20
2019-05-21T20:30:10.182Z,25.20
2019-05-21T20:32:30.476Z,25.20
2019-05-21T20:35:01.234Z,25.20
2019-05-21T20:37:34.475Z,25.10
2019-05-21T20:40:09.066Z,25.10
2019-05-21T20:42:40.719Z,25.10
2019-05-21T20:45:15.468Z,25.10
2019-05-21T20:47:47.148Z,25.00
2019-05-21T20:50:18.982Z,25.00
2019-05-21T20:52:50.256Z,25.00
2019-05-21T20:55:21.165Z,25.00
2019-05-21T20:57:52.390Z,25.00
2019-05-21T21:00:30.504Z,24.90
2019-05-21T21:03:01.951Z,24.90
2019-05-21T21:05:33.006Z,24.90
2019-05-21T21:08:03.602Z,24.90
2019-05-21T21:10:34.159Z,24.80
2019-05-21T21:13:06.352Z,24.80
2019-05-21T21:15:37.385Z,24.80
2019-05-21T21:18:09.016Z,24.80
2019-05-21T21:20:39.799Z,24.80
2019-05-21T21:23:10.691Z,24.80
2019-05-21T21:25:41.439Z,24.70
2019-05-21T21:28:12.265Z,24.70
2019-05-21T21:30:42.796Z,24.70
2019-05-21T21:33:13.645Z,24.70
2019-05-21T21:35:44.447Z,24.70
2019-05-21T21:38:21.050Z,24.60
2019-05-21T21:40:51.877Z,24.60
2019-05-21T21:43:22.678Z,24.60
2019-05-21T21:45:55.039Z,24.50
2019-05-21T21:48:26.095Z,24.50
2019-05-21T21:50:57.620Z,24.50
2019-05-21T21:53:28.245Z,24.50
2019-05-21T21:55:58.782Z,24.50
2019-05-21T21:58:29.452Z,24.40
2019-05-21T22:01:46.070Z,24.40
2019-05-21T22:04:21.686Z,24.30
2019-05-21T22:06:52.937Z,24.30
2019-05-21T22:09:31.177Z,24.30
2019-05-21T22:12:05.451Z,24.30
2019-05-21T22:14:50.479Z,24.20
2019-05-21T22:17:13.397Z,24.20
2019-05-21T22:19:44.267Z,24.20
2019-05-21T22:22:15.395Z,24.20
2019-05-21T22:24:46.773Z,24.20
2019-05-21T22:27:17.509Z,24.20
2019-05-21T22:29:48.273Z,24.20
2019-05-21T22:32:18.838Z,24.20
2019-05-21T22:34:49.384Z,24.20
2019-05-21T22:37:23.593Z,24.20
2019-05-21T22:39:54.767Z,24.10
2019-05-21T22:42:25.751Z,24.10
2019-05-21T22:45:07.247Z,24.10
2019-05-21T22:47:28.663Z,24.10
2019-05-21T22:49:59.245Z,24.10
2019-05-21T22:52:29.852Z,24.10
2019-05-21T22:55:00.624Z,24.00
2019-05-21T22:57:31.124Z,24.00
2019-05-21T23:00:01.844Z,24.00
2019-05-21T23:02:35.167Z,24.00
2019-05-21T23:05:06.453Z,24.00
2019-05-21T23:07:37.086Z,24.00
2019-05-21T23:10:10.196Z,24.00
2019-05-21T23:12:41.028Z,24.00
2019-05-21T23:15:24.374Z,23.90
2019-05-21T23:17:46.454Z,23.90
2019-05-21T23:20:18.884Z,23.90
2019-05-21T23:22:51.683Z,23.90
2019-05-21T23:25:22.346Z,23.90
2019-05-21T23:27:53.275Z,23.90
2019-05-21T23:30:23.869Z,23.90
2019-05-21T23:32:55.623Z,23.80
2019-05-21T23:35:26.527Z,23.80
2019-05-21T23:37:57.738Z,23.80
2019-05-21T23:40:28.832Z,23.80
2019-05-21T23:42:59.615Z,23.80
2019-05-21T23:45:30.587Z,23.80
2019-05-21T23:48:01.312Z,23.70
2019-05-21T23:50:31.900Z,23.70
2019-05-21T23:53:02.969Z,23.70
2019-05-21T23:55:35.170Z,23.70
2019-05-21T23:58:06.314Z,23.70
